Time;durP1;ratioP1;P1;durP2;ratioP2;P2;SDS_P1;SDS_P2;PMS_P1;PMS_P2;Temp;Humidity;BMP_temperature;BMP_pressure;BME280_temperature;BME280_humidity;BME280_pressure;Samples;Min_cycle;Max_cycle;Signal;HPM_P1;HPM_P2
2024/01/14 00:00:37;;;;;;;30.33;11.60;;;0.20;1.00;;;;;;5032462;28;20178;-74
2024/01/14 00:03:03;;;;;;;27.53;11.87;;;-0.20;1.00;;;;;;5043777;28;20259;-75
2024/01/14 00:05:29;;;;;;;29.90;11.83;;;-0.30;1.00;;;;;;5032514;28;20416;-75
2024/01/14 00:07:55;;;;;;;30.80;11.60;;;-0.70;1.00;;;;;;5036175;28;21074;-74
2024/01/14 00:10:22;;;;;;;32.07;12.67;;;-0.10;1.00;;;;;;5033148;28;20619;-78
2024/01/14 00:12:47;;;;;;;33.57;12.37;;;-0.30;1.00;;;;;;5040356;28;20424;-75
2024/01/14 00:15:14;;;;;;;34.53;12.30;;;0.10;1.00;;;;;;5020496;28;20827;-75
2024/01/14 00:17:40;;;;;;;26.03;12.17;;;-0.40;1.00;;;;;;5032641;28;20205;-75
2024/01/14 00:20:08;;;;;;;30.47;11.30;;;-0.40;1.00;;;;;;5046101;28;20424;-75
2024/01/14 00:22:34;;;;;;;28.03;13.20;;;-0.40;1.00;;;;;;5036235;28;20983;-73
2024/01/14 00:24:59;;;;;;;35.23;11.60;;;-0.80;1.00;;;;;;5035850;28;20428;-73
2024/01/14 00:27:25;;;;;;;29.70;12.63;;;0.00;1.00;;;;;;5029232;28;20182;-74
2024/01/14 00:29:51;;;;;;;32.97;12.57;;;-0.40;1.00;;;;;;5015783;28;20223;-77
2024/01/14 00:32:16;;;;;;;29.03;12.97;;;-0.50;1.00;;;;;;5021941;28;20174;-74
2024/01/14 00:34:42;;;;;;;27.87;12.03;;;-0.10;1.00;;;;;;5031478;28;20213;-75
2024/01/14 00:37:08;;;;;;;23.00;9.47;;;-0.40;1.00;;;;;;5043224;28;20177;-73
2024/01/14 00:39:39;;;;;;;33.73;13.20;;;-0.50;1.00;;;;;;5042661;28;20198;-75
2024/01/14 00:42:05;;;;;;;37.23;12.57;;;-0.50;1.00;;;;;;5043765;28;20269;-74
2024/01/14 00:44:31;;;;;;;30.03;13.00;;;-0.50;1.00;;;;;;5021476;28;20437;-74
2024/01/14 00:46:57;;;;;;;33.97;12.50;;;-0.40;1.00;;;;;;5035785;28;20419;-73
2024/01/14 00:49:22;;;;;;;43.90;13.53;;;-0.20;1.00;;;;;;5039820;28;20201;-73
2024/01/14 00:51:48;;;;;;;29.97;11.37;;;-0.90;1.00;;;;;;5023858;28;20423;-74
2024/01/14 00:54:13;;;;;;;32.20;12.50;;;-0.10;1.00;;;;;;5028611;28;20206;-76
2024/01/14 00:56:39;;;;;;;34.00;12.30;;;-0.40;1.00;;;;;;5026702;28;20194;-73
2024/01/14 00:59:05;;;;;;;32.50;11.67;;;0.00;1.00;;;;;;5031423;28;20206;-74
2024/01/14 01:01:31;;;;;;;33.87;11.90;;;-0.30;1.00;;;;;;5045271;28;20165;-74
2024/01/14 01:03:57;;;;;;;32.57;12.03;;;0.10;1.00;;;;;;5033782;28;20414;-76
2024/01/14 01:06:22;;;;;;;33.27;11.53;;;-0.70;1.00;;;;;;5033558;28;20189;-75
2024/01/14 01:08:48;;;;;;;31.20;10.70;;;-0.70;1.00;;;;;;5019307;28;20962;-76
2024/01/14 01:11:16;;;;;;;34.47;12.20;;;-0.10;1.00;;;;;;5011278;28;20232;-73
2024/01/14 01:13:42;;;;;;;36.90;13.97;;;-1.00;1.00;;;;;;5029608;28;20190;-73
2024/01/14 01:16:08;;;;;;;35.17;13.20;;;-0.20;1.00;;;;;;5029624;28;20968;-77
2024/01/14 01:18:34;;;;;;;32.73;12.80;;;-0.10;1.00;;;;;;5014996;28;20190;-74
2024/01/14 01:20:59;;;;;;;35.57;12.20;;;0.00;1.00;;;;;;5018247;28;20170;-74
2024/01/14 01:23:25;;;;;;;34.07;12.80;;;-0.50;1.00;;;;;;5027110;28;20203;-74
2024/01/14 01:25:50;;;;;;;30.83;12.83;;;0.00;1.00;;;;;;5034426;28;20261;-73
2024/01/14 01:28:16;;;;;;;33.63;12.33;;;-0.50;1.00;;;;;;5041614;28;20509;-73
2024/01/14 01:30:42;;;;;;;36.67;12.87;;;-0.60;1.00;;;;;;5028812;28;20177;-73
2024/01/14 01:33:08;;;;;;;34.70;11.17;;;-0.10;1.00;;;;;;5036514;28;20408;-75
2024/01/14 01:35:33;;;;;;;26.97;11.73;;;-0.60;1.00;;;;;;5031046;28;20181;-76
2024/01/14 01:37:59;;;;;;;28.87;11.50;;;-0.10;1.00;;;;;;5032392;28;20170;-75
2024/01/14 01:40:24;;;;;;;30.77;11.50;;;-0.70;1.00;;;;;;5011523;28;20186;-73
2024/01/14 01:42:51;;;;;;;27.47;11.63;;;-0.60;1.00;;;;;;5027672;28;20258;-76
2024/01/14 01:45:16;;;;;;;37.07;12.97;;;-1.00;1.00;;;;;;5033518;28;20239;-73
2024/01/14 01:47:42;;;;;;;32.87;11.93;;;-0.10;1.00;;;;;;5030959;28;20420;-78
2024/01/14 01:50:09;;;;;;;30.37;11.73;;;-0.60;1.00;;;;;;5024577;28;20209;-74
2024/01/14 01:52:36;;;;;;;32.23;11.53;;;-0.60;1.00;;;;;;5020948;28;20187;-75
2024/01/14 01:55:04;;;;;;;33.27;12.23;;;-0.40;1.00;;;;;;5036797;28;20458;-74
2024/01/14 01:57:30;;;;;;;31.37;11.83;;;-1.10;1.00;;;;;;5036137;28;20520;-74
2024/01/14 01:59:56;;;;;;;31.97;11.30;;;-0.70;1.00;;;;;;5019614;28;20556;-73
2024/01/14 02:02:22;;;;;;;32.13;10.70;;;-0.20;1.00;;;;;;5019609;28;20472;-73
2024/01/14 02:04:48;;;;;;;34.07;13.03;;;-0.80;1.00;;;;;;5040247;28;20415;-73
2024/01/14 02:07:15;;;;;;;30.80;10.80;;;-0.50;1.00;;;;;;5034972;28;20172;-74
2024/01/14 02:09:40;;;;;;;29.47;11.50;;;-0.90;1.00;;;;;;5023105;28;20437;-74
2024/01/14 02:12:06;;;;;;;29.60;10.60;;;-0.80;1.00;;;;;;5029232;28;20432;-74
2024/01/14 02:14:32;;;;;;;30.40;11.43;;;-0.40;1.00;;;;;;5038305;28;20573;-75
2024/01/14 02:16:58;;;;;;;35.67;12.80;;;-0.70;1.00;;;;;;5041386;28;20169;-74
2024/01/14 02:19:23;;;;;;;31.33;12.20;;;-0.60;1.00;;;;;;5041200;28;20530;-77
2024/01/14 02:21:56;;;;;;;30.93;11.30;;;-0.80;1.00;;;;;;5037964;28;20828;-76
2024/01/14 02:24:30;;;;;;;34.20;11.57;;;-0.90;1.00;;;;;;5020823;28;20179;-76
2024/01/14 02:26:56;;;;;;;27.00;10.67;;;-0.80;1.00;;;;;;5023382;28;21267;-75
2024/01/14 02:29:22;;;;;;;32.00;12.20;;;-0.80;1.00;;;;;;5035059;28;20520;-73
2024/01/14 02:31:48;;;;;;;33.50;12.40;;;-0.30;1.00;;;;;;5018395;28;20206;-73
2024/01/14 02:34:14;;;;;;;32.30;12.10;;;-0.70;1.00;;;;;;5043855;28;20483;-75
2024/01/14 02:36:40;;;;;;;31.40;11.20;;;-0.60;1.00;;;;;;5031038;28;20774;-75
2024/01/14 02:39:06;;;;;;;35.30;11.47;;;-0.50;1.00;;;;;;5031113;28;20429;-76
2024/01/14 02:41:35;;;;;;;31.77;12.03;;;-0.20;1.00;;;;;;5020329;28;20417;-73
2024/01/14 02:44:01;;;;;;;33.93;10.97;;;-0.70;1.00;;;;;;5025672;28;20185;-78
2024/01/14 02:46:28;;;;;;;31.37;11.87;;;-0.40;1.00;;;;;;5037560;28;20818;-72
2024/01/14 02:48:54;;;;;;;31.43;12.57;;;-0.80;1.00;;;;;;5013420;28;20691;-73
2024/01/14 02:51:20;;;;;;;41.53;13.10;;;-0.50;1.00;;;;;;5030196;28;20475;-73
2024/01/14 02:53:45;;;;;;;34.33;12.60;;;-1.30;1.00;;;;;;5039241;28;20564;-75
2024/01/14 02:56:11;;;;;;;31.50;12.10;;;-0.20;1.00;;;;;;5034334;28;20256;-72
2024/01/14 02:58:37;;;;;;;33.47;12.17;;;-0.60;1.00;;;;;;5023009;28;20640;-73
2024/01/14 03:01:03;;;;;;;32.43;12.20;;;-0.80;1.00;;;;;;5029557;28;20409;-73
2024/01/14 03:03:29;;;;;;;29.73;11.90;;;-0.80;1.00;;;;;;5027370;28;20967;-73
2024/01/14 03:05:54;;;;;;;34.00;12.47;;;-0.30;1.00;;;;;;5012487;28;20243;-75
2024/01/14 03:08:20;;;;;;;31.97;12.87;;;-0.80;1.00;;;;;;5021057;28;20277;-75
2024/01/14 03:10:45;;;;;;;33.27;13.80;;;-0.70;1.00;;;;;;5023091;28;20174;-73
2024/01/14 03:13:13;;;;;;;32.57;13.03;;;-0.30;1.00;;;;;;5037146;28;20668;-73
2024/01/14 03:15:39;;;;;;;32.37;11.83;;;-0.70;1.00;;;;;;5032997;28;20272;-76
2024/01/14 03:18:05;;;;;;;33.27;11.80;;;-0.40;1.00;;;;;;5034324;28;21007;-75
2024/01/14 03:20:30;;;;;;;43.30;13.37;;;-0.90;1.00;;;;;;5024649;28;20194;-72
2024/01/14 03:22:56;;;;;;;32.37;12.07;;;-1.10;1.00;;;;;;5032762;28;20181;-73
2024/01/14 03:25:21;;;;;;;41.33;12.13;;;-0.30;1.00;;;;;;5037659;28;20717;-73
2024/01/14 03:27:47;;;;;;;34.17;12.47;;;-1.10;1.00;;;;;;5017007;28;20660;-77
2024/01/14 03:30:12;;;;;;;37.70;12.53;;;-0.50;1.00;;;;;;5016412;28;20193;-73
2024/01/14 03:32:38;;;;;;;33.27;12.43;;;-0.70;1.00;;;;;;5008920;28;20183;-72
2024/01/14 03:35:04;;;;;;;33.90;12.70;;;-0.30;1.00;;;;;;5013246;28;20225;-73
2024/01/14 03:37:29;;;;;;;41.90;13.67;;;-0.80;1.00;;;;;;5027180;28;20186;-76
2024/01/14 03:39:56;;;;;;;33.60;12.50;;;-0.80;1.00;;;;;;5031763;28;20584;-74
2024/01/14 03:42:22;;;;;;;30.40;12.30;;;-0.80;1.00;;;;;;5022109;28;20174;-75
2024/01/14 03:44:48;;;;;;;32.63;12.97;;;-0.70;1.00;;;;;;5028640;28;20422;-76
2024/01/14 03:47:14;;;;;;;34.50;12.60;;;-0.50;1.00;;;;;;5034394;28;20651;-76
2024/01/14 03:49:39;;;;;;;33.50;13.17;;;-0.50;1.00;;;;;;5029696;28;20441;-74
2024/01/14 03:52:05;;;;;;;34.63;11.90;;;-0.50;1.00;;;;;;5024822;28;20189;-73
2024/01/14 03:54:30;;;;;;;36.13;13.37;;;-0.60;1.00;;;;;;5032319;28;20687;-72
2024/01/14 03:56:56;;;;;;;30.60;13.10;;;-0.60;1.00;;;;;;5023577;28;20525;-76
2024/01/14 03:59:21;;;;;;;34.40;12.93;;;-0.60;1.00;;;;;;5030825;28;20211;-73
2024/01/14 04:01:47;;;;;;;42.00;14.03;;;-0.60;1.00;;;;;;5034693;28;20258;-73
2024/01/14 04:04:12;;;;;;;40.90;13.23;;;-0.10;1.00;;;;;;5027629;28;20270;-77
2024/01/14 04:06:38;;;;;;;34.33;12.60;;;-0.30;1.00;;;;;;5024510;28;20582;-76
2024/01/14 04:09:04;;;;;;;35.73;13.87;;;-0.70;1.00;;;;;;5036546;28;20212;-75
2024/01/14 04:11:30;;;;;;;34.00;12.03;;;-1.00;1.00;;;;;;5032130;28;20183;-75
2024/01/14 04:13:55;;;;;;;31.20;13.20;;;-0.20;1.00;;;;;;5035272;28;21108;-73
2024/01/14 04:16:21;;;;;;;35.80;12.70;;;-0.50;1.00;;;;;;5012302;28;20225;-76
2024/01/14 04:18:46;;;;;;;36.63;13.33;;;-0.50;1.00;;;;;;5045028;28;20238;-73
2024/01/14 04:21:24;;;;;;;34.97;12.07;;;-0.10;1.00;;;;;;5027106;28;20184;-73
2024/01/14 04:23:51;;;;;;;33.70;12.50;;;-0.60;1.00;;;;;;5041989;28;20207;-74
2024/01/14 04:26:23;;;;;;;37.43;14.20;;;-1.00;1.00;;;;;;5048019;28;20416;-73
2024/01/14 04:28:52;;;;;;;37.03;13.20;;;-0.70;1.00;;;;;;5013553;28;20816;-74
2024/01/14 04:31:18;;;;;;;36.37;13.10;;;-1.20;1.00;;;;;;5032273;28;20767;-73
2024/01/14 04:33:45;;;;;;;30.03;13.20;;;-0.90;1.00;;;;;;5028084;28;20467;-73
2024/01/14 04:36:10;;;;;;;37.13;13.30;;;-1.00;1.00;;;;;;5031632;28;20500;-75
2024/01/14 04:38:36;;;;;;;39.27;13.57;;;-1.00;1.00;;;;;;5035280;28;20551;-71
2024/01/14 04:41:02;;;;;;;32.67;13.60;;;-1.00;1.00;;;;;;5024004;28;20182;-74
2024/01/14 04:43:28;;;;;;;29.57;11.57;;;-1.10;1.00;;;;;;5016176;28;20170;-73
2024/01/14 04:45:53;;;;;;;32.63;12.50;;;-0.70;1.00;;;;;;5017930;28;20213;-73
2024/01/14 04:48:19;;;;;;;44.87;16.17;;;-0.90;1.00;;;;;;5041613;28;20173;-73
2024/01/14 04:50:44;;;;;;;35.37;14.00;;;-0.90;1.00;;;;;;5023542;28;20262;-74
2024/01/14 04:53:11;;;;;;;27.70;11.17;;;-0.60;1.00;;;;;;5017255;28;20186;-73
2024/01/14 04:55:37;;;;;;;35.90;12.80;;;-1.10;1.00;;;;;;5023208;28;20174;-77
2024/01/14 04:58:03;;;;;;;33.73;12.83;;;-1.00;1.00;;;;;;5034172;28;20632;-71
2024/01/14 05:00:29;;;;;;;37.93;14.50;;;-1.20;1.00;;;;;;5034500;28;20195;-74
2024/01/14 05:02:54;;;;;;;38.10;13.77;;;-1.20;1.00;;;;;;5025062;28;20414;-72
2024/01/14 05:05:21;;;;;;;34.50;12.80;;;-1.20;1.00;;;;;;5046154;28;20675;-75
2024/01/14 05:07:46;;;;;;;35.97;14.37;;;-0.80;1.00;;;;;;5039655;28;20474;-74
2024/01/14 05:10:12;;;;;;;35.87;12.30;;;-1.60;1.00;;;;;;5029680;28;20244;-73
2024/01/14 05:12:37;;;;;;;31.53;12.80;;;-0.90;1.00;;;;;;5021970;28;20186;-74
2024/01/14 05:15:04;;;;;;;41.53;13.43;;;-1.40;1.00;;;;;;5035195;28;20205;-73
2024/01/14 05:17:29;;;;;;;37.17;14.67;;;-0.70;1.00;;;;;;5021702;28;20603;-75
2024/01/14 05:19:55;;;;;;;35.37;12.17;;;-1.00;1.00;;;;;;5022378;28;20445;-73
2024/01/14 05:22:20;;;;;;;36.10;13.27;;;-1.20;1.00;;;;;;5031237;28;20265;-76
2024/01/14 05:24:46;;;;;;;36.87;13.10;;;-0.70;1.00;;;;;;5047599;28;20189;-74
2024/01/14 05:27:15;;;;;;;35.10;13.53;;;-1.00;1.00;;;;;;5042366;28;20177;-74
2024/01/14 05:29:41;;;;;;;29.73;11.90;;;-1.00;1.00;;;;;;5021798;28;20280;-71
2024/01/14 05:32:11;;;;;;;38.80;12.40;;;-0.90;1.00;;;;;;5020251;28;20421;-73
2024/01/14 05:34:37;;;;;;;36.40;13.40;;;-1.00;1.00;;;;;;5022246;28;20518;-75
2024/01/14 05:37:02;;;;;;;36.67;13.07;;;-0.90;1.00;;;;;;5026367;28;20413;-73
2024/01/14 05:39:28;;;;;;;39.13;12.87;;;-1.00;1.00;;;;;;5028120;28;20212;-73
2024/01/14 05:41:53;;;;;;;31.07;11.50;;;-1.10;1.00;;;;;;5026799;28;20601;-75
2024/01/14 05:44:19;;;;;;;35.13;12.23;;;-1.00;1.00;;;;;;5029893;28;20209;-77
2024/01/14 05:46:45;;;;;;;41.20;13.33;;;-0.80;1.00;;;;;;5030090;28;20223;-73
2024/01/14 05:49:10;;;;;;;40.83;13.10;;;-1.10;1.00;;;;;;5022543;28;20191;-73
2024/01/14 05:51:36;;;;;;;36.80;13.50;;;-0.90;1.00;;;;;;5018154;28;20194;-73
2024/01/14 05:54:03;;;;;;;31.37;10.60;;;-1.10;1.00;;;;;;5038012;28;20228;-75
2024/01/14 05:56:28;;;;;;;32.70;12.20;;;-1.10;1.00;;;;;;5035176;28;20421;-75
2024/01/14 05:58:54;;;;;;;36.60;12.70;;;-0.90;1.00;;;;;;5027828;28;20544;-75
2024/01/14 06:01:19;;;;;;;38.60;13.30;;;-0.90;1.00;;;;;;5025482;28;20257;-72
2024/01/14 06:03:45;;;;;;;39.30;12.83;;;-1.00;1.00;;;;;;5025382;28;20690;-75
2024/01/14 06:06:11;;;;;;;37.07;13.53;;;-0.60;1.00;;;;;;5025650;28;20188;-73
2024/01/14 06:08:37;;;;;;;39.10;12.93;;;-1.00;1.00;;;;;;5035092;28;20208;-75
2024/01/14 06:11:03;;;;;;;41.23;13.07;;;-0.70;1.00;;;;;;5019725;28;20185;-75
2024/01/14 06:13:29;;;;;;;33.40;11.17;;;-1.10;1.00;;;;;;5020157;28;20184;-76
2024/01/14 06:15:55;;;;;;;36.43;13.83;;;-0.90;1.00;;;;;;5030772;28;20990;-75
2024/01/14 06:18:21;;;;;;;38.23;11.47;;;-1.10;1.00;;;;;;5025950;28;20443;-75
2024/01/14 06:20:47;;;;;;;29.60;11.40;;;-1.10;1.00;;;;;;5028062;28;20245;-74
2024/01/14 06:23:13;;;;;;;43.40;12.97;;;-0.80;1.00;;;;;;5029450;28;20170;-76
2024/01/14 06:25:39;;;;;;;35.93;11.60;;;-0.80;1.00;;;;;;5017568;28;20491;-74
2024/01/14 06:28:06;;;;;;;34.93;13.53;;;-1.20;1.00;;;;;;5022678;28;20187;-73
2024/01/14 06:30:32;;;;;;;42.73;14.10;;;-1.40;1.00;;;;;;5019643;28;20244;-75
2024/01/14 06:32:58;;;;;;;37.77;13.00;;;-1.30;1.00;;;;;;5014620;28;20946;-76
2024/01/14 06:35:23;;;;;;;36.87;13.23;;;-1.20;1.00;;;;;;5019129;28;20631;-75
2024/01/14 06:37:49;;;;;;;35.07;12.23;;;-1.00;1.00;;;;;;5036284;28;20190;-73
2024/01/14 06:40:15;;;;;;;34.90;12.80;;;-1.20;1.00;;;;;;5018033;28;20198;-73
2024/01/14 06:42:40;;;;;;;33.67;10.30;;;-1.20;1.00;;;;;;5022693;28;20424;-75
2024/01/14 06:45:08;;;;;;;31.70;12.10;;;-0.80;1.00;;;;;;5035960;28;20415;-72
2024/01/14 06:47:34;;;;;;;33.13;11.20;;;-1.00;1.00;;;;;;5012034;28;20196;-73
2024/01/14 06:49:59;;;;;;;36.37;12.87;;;-0.90;1.00;;;;;;5029189;28;21009;-73
2024/01/14 06:52:25;;;;;;;18.03;9.00;;;-0.90;1.00;;;;;;5034415;28;20174;-73
2024/01/14 06:54:50;;;;;;;32.73;11.17;;;-1.00;1.00;;;;;;5018728;28;20212;-77
2024/01/14 06:57:16;;;;;;;35.97;12.40;;;-1.10;1.00;;;;;;5035945;28;20364;-73
2024/01/14 06:59:45;;;;;;;32.30;12.17;;;-1.00;1.00;;;;;;5028215;28;20259;-73
2024/01/14 07:02:13;;;;;;;38.10;12.33;;;-0.80;1.00;;;;;;5027474;28;20216;-73
2024/01/14 07:04:39;;;;;;;32.70;12.50;;;-1.00;1.00;;;;;;5024335;28;20423;-75
2024/01/14 07:07:05;;;;;;;36.30;12.73;;;-1.10;1.00;;;;;;5036664;28;20516;-76
2024/01/14 07:09:33;;;;;;;52.80;18.27;;;-1.30;1.00;;;;;;5023433;28;20202;-74
2024/01/14 07:12:00;;;;;;;24.37;10.37;;;-1.10;1.00;;;;;;5032148;28;20649;-78
2024/01/14 07:14:25;;;;;;;31.33;12.20;;;-0.70;1.00;;;;;;5024674;28;20452;-75
2024/01/14 07:16:51;;;;;;;24.60;8.93;;;-1.20;1.00;;;;;;5037007;28;20442;-73
2024/01/14 07:19:16;;;;;;;32.60;12.50;;;-1.30;1.00;;;;;;5020470;28;20285;-73
2024/01/14 07:21:42;;;;;;;33.53;11.53;;;-1.40;1.00;;;;;;5022093;28;20201;-75
2024/01/14 07:24:07;;;;;;;36.23;12.90;;;-1.60;1.00;;;;;;5025571;28;20200;-75
2024/01/14 07:26:33;;;;;;;30.97;13.20;;;-1.20;1.00;;;;;;5025716;28;20189;-75
2024/01/14 07:28:58;;;;;;;36.67;13.87;;;-1.30;1.00;;;;;;5020637;28;20726;-74
2024/01/14 07:31:27;;;;;;;34.87;13.43;;;-1.20;1.00;;;;;;5026521;28;20223;-73
2024/01/14 07:33:53;;;;;;;27.03;10.40;;;-1.10;1.00;;;;;;5023288;28;20201;-73
2024/01/14 07:36:19;;;;;;;38.97;13.93;;;-1.70;1.00;;;;;;5020187;28;20464;-75
2024/01/14 07:38:45;;;;;;;29.33;11.10;;;-1.20;1.00;;;;;;5035416;28;20220;-79
2024/01/14 07:41:15;;;;;;;35.43;12.63;;;-1.10;1.00;;;;;;5032427;28;20197;-78
2024/01/14 07:43:41;;;;;;;34.37;13.50;;;-1.10;1.00;;;;;;5031734;28;20432;-76
2024/01/14 07:46:07;;;;;;;35.87;13.57;;;-1.40;1.00;;;;;;5031315;28;20572;-72
2024/01/14 07:48:33;;;;;;;34.27;13.53;;;-0.70;1.00;;;;;;5030828;28;20444;-74
2024/01/14 07:50:59;;;;;;;42.60;14.07;;;-0.80;1.00;;;;;;5047002;28;20709;-76
2024/01/14 07:53:25;;;;;;;35.37;14.03;;;-0.90;1.00;;;;;;5043377;28;20508;-74
2024/01/14 07:55:50;;;;;;;44.93;15.63;;;-0.90;1.00;;;;;;5045050;28;20192;-74
2024/01/14 07:58:17;;;;;;;40.33;13.60;;;-0.90;1.00;;;;;;5031788;28;20230;-76
2024/01/14 08:00:43;;;;;;;39.47;14.17;;;-0.90;1.00;;;;;;5028029;28;20179;-74
2024/01/14 08:03:09;;;;;;;38.73;14.33;;;-0.90;1.00;;;;;;5034418;28;20426;-73
2024/01/14 08:05:37;;;;;;;37.97;13.43;;;-1.00;1.00;;;;;;5046907;28;20182;-73
2024/01/14 08:08:04;;;;;;;42.63;14.50;;;-0.50;1.00;;;;;;5019257;28;20233;-75
2024/01/14 08:10:29;;;;;;;42.37;14.80;;;-1.00;1.00;;;;;;5031814;28;20536;-75
2024/01/14 08:12:55;;;;;;;46.50;14.27;;;-0.80;1.00;;;;;;5032021;28;20516;-73
2024/01/14 08:15:20;;;;;;;44.03;13.93;;;-1.30;1.00;;;;;;5027048;28;20217;-73
2024/01/14 08:17:46;;;;;;;38.03;15.37;;;-0.70;1.00;;;;;;5023285;28;20185;-74
2024/01/14 08:20:11;;;;;;;42.47;15.70;;;-0.30;1.00;;;;;;5045640;28;20202;-73
2024/01/14 08:22:38;;;;;;;41.50;14.77;;;-0.60;1.00;;;;;;5026963;28;20502;-73
2024/01/14 08:25:04;;;;;;;47.07;17.77;;;-1.20;1.00;;;;;;5041165;28;20735;-74
2024/01/14 08:27:30;;;;;;;50.30;15.90;;;-0.80;1.00;;;;;;5036994;28;20421;-74
2024/01/14 08:29:55;;;;;;;44.90;16.83;;;-1.00;1.00;;;;;;5032282;28;20966;-73
2024/01/14 08:32:21;;;;;;;52.30;17.03;;;-0.80;1.00;;;;;;5025738;28;20411;-74
2024/01/14 08:34:47;;;;;;;50.70;17.10;;;-0.90;1.00;;;;;;5038282;28;20284;-73
2024/01/14 08:37:12;;;;;;;51.27;17.23;;;-0.40;1.00;;;;;;5030486;28;20189;-74
2024/01/14 08:39:38;;;;;;;47.43;17.13;;;-0.90;1.00;;;;;;5038048;28;20194;-74
2024/01/14 08:42:03;;;;;;;37.20;14.30;;;-1.00;1.00;;;;;;5030180;28;20176;-75
2024/01/14 08:44:29;;;;;;;37.27;14.60;;;-1.00;1.00;;;;;;5032711;28;20174;-72
2024/01/14 08:46:54;;;;;;;51.43;17.30;;;-1.20;1.00;;;;;;5038267;28;20525;-73
2024/01/14 08:49:21;;;;;;;40.93;15.43;;;-0.70;1.00;;;;;;5037616;28;20200;-73
2024/01/14 08:51:46;;;;;;;52.70;18.10;;;-1.10;1.00;;;;;;5030988;28;20652;-73
2024/01/14 08:54:12;;;;;;;54.17;16.73;;;-0.70;1.00;;;;;;5019991;28;20469;-73
2024/01/14 08:56:37;;;;;;;51.17;15.60;;;-0.60;1.00;;;;;;5025727;28;20590;-72
2024/01/14 08:59:03;;;;;;;51.50;17.60;;;-1.10;1.00;;;;;;5035267;28;20290;-72
2024/01/14 09:01:29;;;;;;;47.93;17.30;;;-1.00;1.00;;;;;;5035804;28;20193;-73
2024/01/14 09:03:55;;;;;;;59.00;19.87;;;-1.10;1.00;;;;;;5021117;28;20417;-75
2024/01/14 09:06:21;;;;;;;47.90;18.20;;;-0.10;1.00;;;;;;5041169;28;20251;-73
2024/01/14 09:08:46;;;;;;;44.33;16.73;;;-0.50;1.00;;;;;;5032203;28;20647;-73
2024/01/14 09:11:13;;;;;;;44.27;15.50;;;-0.50;1.00;;;;;;5031196;28;20268;-73
2024/01/14 09:13:38;;;;;;;49.67;15.83;;;-0.80;1.00;;;;;;5034142;28;20210;-71
2024/01/14 09:16:05;;;;;;;58.10;17.63;;;-0.30;1.00;;;;;;5043917;28;20464;-72
2024/01/14 09:18:31;;;;;;;48.17;15.93;;;-0.50;1.00;;;;;;5027820;28;20614;-76
2024/01/14 09:20:57;;;;;;;49.50;17.17;;;-0.20;1.00;;;;;;5050860;28;20446;-72
2024/01/14 09:23:22;;;;;;;59.43;17.50;;;0.00;1.00;;;;;;5035157;28;20190;-73
2024/01/14 09:25:48;;;;;;;49.73;15.90;;;0.30;1.00;;;;;;5026196;28;20177;-73
2024/01/14 09:28:13;;;;;;;41.13;15.83;;;-0.30;1.00;;;;;;5043966;28;20235;-72
2024/01/14 09:30:39;;;;;;;36.27;14.47;;;0.00;1.00;;;;;;5039381;28;20175;-72
2024/01/14 09:33:04;;;;;;;41.13;14.67;;;-0.30;1.00;;;;;;5028003;28;20638;-73
2024/01/14 09:35:30;;;;;;;45.37;15.40;;;0.10;1.00;;;;;;5042878;28;20675;-77
2024/01/14 09:37:55;;;;;;;34.93;12.87;;;-0.30;1.00;;;;;;5013838;28;20257;-75
2024/01/14 09:40:21;;;;;;;50.23;14.90;;;-0.50;1.00;;;;;;5026809;28;20221;-73
2024/01/14 09:42:49;;;;;;;49.07;14.47;;;-0.70;1.00;;;;;;5021630;28;20181;-73
2024/01/14 09:45:17;;;;;;;45.50;16.60;;;-0.20;1.00;;;;;;5048916;28;20216;-73
2024/01/14 09:47:43;;;;;;;47.30;17.67;;;-0.10;1.00;;;;;;5050494;28;20450;-73
2024/01/14 09:50:10;;;;;;;49.63;16.50;;;-0.20;1.00;;;;;;5028709;28;20464;-73
2024/01/14 09:52:39;;;;;;;42.90;15.73;;;-0.30;1.00;;;;;;5050455;28;20450;-72
2024/01/14 09:55:06;;;;;;;45.73;16.13;;;0.10;1.00;;;;;;5033443;28;20487;-73
2024/01/14 09:57:34;;;;;;;46.43;14.63;;;-0.40;1.00;;;;;;5037219;28;20805;-73
2024/01/14 10:00:04;;;;;;;39.50;12.87;;;-0.40;1.00;;;;;;5045126;28;20453;-72
2024/01/14 10:02:33;;;;;;;48.20;16.90;;;-0.50;1.00;;;;;;5031548;28;20569;-73
2024/01/14 10:04:59;;;;;;;46.27;15.03;;;-0.70;1.00;;;;;;5025797;28;20416;-78
2024/01/14 10:07:26;;;;;;;47.70;16.23;;;-0.30;1.00;;;;;;5029662;28;20514;-73
2024/01/14 10:09:52;;;;;;;38.67;14.43;;;-0.70;1.00;;;;;;5033007;28;20276;-74
2024/01/14 10:12:18;;;;;;;47.70;15.80;;;-0.90;1.00;;;;;;5039847;28;20415;-76
2024/01/14 10:14:44;;;;;;;51.33;17.70;;;-0.10;1.00;;;;;;5041877;28;20571;-73
2024/01/14 10:17:13;;;;;;;37.83;13.47;;;-0.30;1.00;;;;;;5024763;28;20413;-75
2024/01/14 10:19:39;;;;;;;45.47;15.03;;;-0.30;1.00;;;;;;5041528;28;20721;-72
2024/01/14 10:22:05;;;;;;;44.43;15.43;;;-0.20;1.00;;;;;;5033858;28;20417;-73
2024/01/14 10:24:32;;;;;;;33.40;11.90;;;-0.40;1.00;;;;;;5039364;28;20177;-73
2024/01/14 10:26:58;;;;;;;47.70;16.80;;;-0.30;1.00;;;;;;5038027;28;20449;-73
2024/01/14 10:29:24;;;;;;;53.87;16.30;;;-0.50;1.00;;;;;;5023899;28;20465;-73
2024/01/14 10:31:49;;;;;;;44.83;15.43;;;-0.10;1.00;;;;;;5031039;28;20181;-73
2024/01/14 10:34:17;;;;;;;47.57;15.30;;;-0.50;1.00;;;;;;5019033;28;20468;-73
2024/01/14 10:36:43;;;;;;;44.37;14.60;;;-0.50;1.00;;;;;;5049135;28;20169;-73
2024/01/14 10:39:11;;;;;;;48.87;16.40;;;-0.30;1.00;;;;;;5026391;28;20429;-73
2024/01/14 10:41:36;;;;;;;43.07;16.03;;;-0.40;1.00;;;;;;5036567;28;20428;-75
2024/01/14 10:44:02;;;;;;;44.20;16.23;;;-0.10;1.00;;;;;;5013602;28;20416;-75
2024/01/14 10:46:32;;;;;;;46.30;15.93;;;-1.10;1.00;;;;;;5034037;28;20198;-73
2024/01/14 10:49:07;;;;;;;46.97;17.27;;;-0.40;1.00;;;;;;5022094;28;20240;-73
2024/01/14 10:51:39;;;;;;;36.60;14.07;;;-0.40;1.00;;;;;;5034382;28;20411;-75
2024/01/14 10:54:22;;;;;;;48.10;16.93;;;0.00;1.00;;;;;;5036835;28;20503;-74
2024/01/14 10:56:56;;;;;;;49.17;18.10;;;-0.50;1.00;;;;;;5036601;28;21064;-73
2024/01/14 10:59:24;;;;;;;55.10;18.80;;;-0.40;1.00;;;;;;5043018;28;20454;-74
2024/01/14 11:01:53;;;;;;;64.70;21.93;;;-0.40;1.00;;;;;;5030520;28;20408;-73
2024/01/14 11:04:19;;;;;;;54.70;17.67;;;-0.20;1.00;;;;;;5038874;28;20492;-73
2024/01/14 11:06:47;;;;;;;50.30;14.73;;;0.30;1.00;;;;;;5018118;28;20505;-73
2024/01/14 11:09:12;;;;;;;39.57;16.33;;;0.00;1.00;;;;;;5022843;28;20546;-75
2024/01/14 11:11:55;;;;;;;37.07;13.73;;;0.00;1.00;;;;;;5024747;28;20440;-73
2024/01/14 11:14:29;;;;;;;52.83;20.83;;;0.00;1.00;;;;;;5023665;28;20597;-75
2024/01/14 11:17:03;;;;;;;36.90;15.00;;;0.60;1.00;;;;;;5013888;28;20498;-74
2024/01/14 11:19:33;;;;;;;47.00;17.20;;;0.30;1.00;;;;;;5018158;28;20430;-77
2024/01/14 11:22:15;;;;;;;44.10;15.87;;;0.90;1.00;;;;;;5010495;28;20471;-73
2024/01/14 11:24:41;;;;;;;51.73;17.33;;;0.40;1.00;;;;;;5042477;28;20455;-75
2024/01/14 11:27:07;;;;;;;44.33;15.77;;;0.40;1.00;;;;;;5033628;28;20444;-73
2024/01/14 11:29:34;;;;;;;42.77;17.17;;;0.20;1.00;;;;;;5013523;28;20297;-74
2024/01/14 11:32:07;;;;;;;50.17;17.47;;;0.20;1.00;;;;;;5026132;28;20449;-76
2024/01/14 11:34:50;;;;;;;43.13;14.57;;;0.20;1.00;;;;;;5042647;28;20566;-73
2024/01/14 11:37:38;;;;;;;43.40;15.03;;;0.30;1.00;;;;;;5017868;28;20416;-73
2024/01/14 11:40:07;;;;;;;46.87;14.70;;;0.20;1.00;;;;;;5030143;28;20432;-75
2024/01/14 11:42:57;;;;;;;51.80;17.00;;;0.30;1.00;;;;;;5011000;28;20418;-73
2024/01/14 11:45:23;;;;;;;48.77;17.43;;;0.40;1.00;;;;;;5017210;28;20421;-74
2024/01/14 11:47:50;;;;;;;48.10;17.70;;;0.50;1.00;;;;;;5018166;28;21202;-73
2024/01/14 11:50:16;;;;;;;47.20;16.63;;;0.50;1.00;;;;;;5023509;28;20198;-72
2024/01/14 11:52:46;;;;;;;42.60;15.97;;;0.90;1.00;;;;;;5036458;28;20424;-73
2024/01/14 11:55:14;;;;;;;47.43;16.50;;;1.10;1.00;;;;;;5026698;28;20472;-74
2024/01/14 11:57:40;;;;;;;45.70;15.10;;;1.40;1.00;;;;;;5025112;28;20412;-73
2024/01/14 12:00:09;;;;;;;42.00;16.00;;;0.90;1.00;;;;;;5016919;28;20445;-73
2024/01/14 12:02:34;;;;;;;46.07;16.53;;;0.90;1.00;;;;;;5037438;28;20440;-74
2024/01/14 12:05:20;;;;;;;36.80;15.00;;;1.20;1.00;;;;;;5019218;28;20958;-73
2024/01/14 12:07:46;;;;;;;49.23;15.40;;;0.70;1.00;;;;;;5020937;28;20323;-74
2024/01/14 12:10:21;;;;;;;42.03;15.50;;;1.10;1.00;;;;;;5034321;28;20435;-73
2024/01/14 12:12:46;;;;;;;45.70;15.23;;;1.10;1.00;;;;;;5016805;28;20421;-74
2024/01/14 12:15:14;;;;;;;43.10;14.63;;;1.00;1.00;;;;;;5026125;28;20577;-73
2024/01/14 12:17:39;;;;;;;42.93;15.70;;;1.00;1.00;;;;;;5022549;28;20680;-74
2024/01/14 12:20:08;;;;;;;40.63;14.87;;;0.60;1.00;;;;;;5029932;28;20444;-73
2024/01/14 12:22:35;;;;;;;44.57;15.83;;;0.40;1.00;;;;;;5047773;28;20169;-74
2024/01/14 12:25:01;;;;;;;42.13;14.63;;;0.90;1.00;;;;;;5031715;28;20428;-74
2024/01/14 12:27:27;;;;;;;52.33;16.80;;;0.50;1.00;;;;;;5019343;28;21128;-74
2024/01/14 12:29:52;;;;;;;42.20;14.43;;;0.70;1.00;;;;;;5036475;28;20454;-74
2024/01/14 12:32:18;;;;;;;36.40;13.60;;;0.60;1.00;;;;;;5036738;28;20256;-79
2024/01/14 12:34:44;;;;;;;35.70;13.10;;;1.10;1.00;;;;;;5023750;28;20201;-73